createdAt,value
2022-11-02T00:03:48.523Z,101426.81
2022-11-02T00:07:52.853Z,101430.75
2022-11-02T00:11:54.221Z,101437.63
2022-11-02T00:15:56.314Z,101440.13
2022-11-02T00:19:57.797Z,101440.91
2022-11-02T00:24:00.470Z,101440.19
2022-11-02T00:28:01.939Z,101434.94
2022-11-02T00:32:03.440Z,101428.09
2022-11-02T00:36:05.026Z,101436.25
2022-11-02T00:40:06.991Z,101441.34
2022-11-02T00:44:08.673Z,101442.09
2022-11-02T00:48:10.323Z,101441.09
2022-11-02T00:52:11.743Z,101436.09
2022-11-02T00:56:13.089Z,101437.56
2022-11-02T01:00:15.222Z,101437.44
2022-11-02T01:04:20.249Z,101432.56
2022-11-02T01:08:21.743Z,101429.63
2022-11-02T01:12:23.322Z,101433.41
2022-11-02T01:16:24.812Z,101424.97
2022-11-02T01:20:26.234Z,101434.25
2022-11-02T01:24:27.624Z,101427.88
2022-11-02T01:28:28.994Z,101435.50
2022-11-02T01:32:30.779Z,101424.50
2022-11-02T01:36:32.191Z,101432.66
2022-11-02T01:40:39.087Z,101425.00
2022-11-02T01:44:41.136Z,101415.91
2022-11-02T01:48:58.179Z,101409.09
2022-11-02T01:52:59.789Z,101400.66
2022-11-02T01:57:05.247Z,101404.69
2022-11-02T02:01:06.855Z,101398.88
2022-11-02T02:05:11.149Z,101395.34
2022-11-02T02:09:14.625Z,101407.00
2022-11-02T02:13:17.490Z,101401.84
2022-11-02T02:17:21.664Z,101405.50
2022-11-02T02:21:30.599Z,101405.19
2022-11-02T02:25:48.086Z,101401.94
2022-11-02T02:30:04.657Z,101407.13
2022-11-02T02:34:17.568Z,101395.78
2022-11-02T02:38:32.521Z,101399.66
2022-11-02T02:42:39.846Z,101393.00
2022-11-02T02:46:45.452Z,101391.53
2022-11-02T02:50:55.049Z,101381.47
2022-11-02T02:54:59.788Z,101385.38
2022-11-02T02:59:07.987Z,101388.75
2022-11-02T03:03:15.820Z,101388.16
2022-11-02T03:07:23.651Z,101390.75
2022-11-02T03:11:25.526Z,101385.72
2022-11-02T03:15:42.088Z,101375.97
2022-11-02T03:20:09.150Z,101376.94
2022-11-02T03:24:18.866Z,101385.84
2022-11-02T03:28:41.831Z,101389.50
2022-11-02T03:33:05.184Z,101384.69
2022-11-02T03:37:16.427Z,101381.94
2022-11-02T03:41:20.756Z,101385.75
2022-11-02T03:45:26.518Z,101390.03
2022-11-02T03:49:29.953Z,101387.09
2022-11-02T03:53:53.276Z,101385.38
2022-11-02T03:57:54.819Z,101375.47
2022-11-02T04:01:56.635Z,101379.22
2022-11-02T04:05:58.119Z,101375.63
2022-11-02T04:09:59.534Z,101378.56
2022-11-02T04:14:19.510Z,101363.44
2022-11-02T04:18:39.355Z,101368.00
2022-11-02T04:22:59.145Z,101371.72
2022-11-02T04:27:00.526Z,101371.22
2022-11-02T04:31:01.973Z,101365.38
2022-11-02T04:35:04.469Z,101366.53
2022-11-02T04:39:05.885Z,101374.78
2022-11-02T04:43:07.357Z,101381.75
2022-11-02T04:47:08.773Z,101380.22
2022-11-02T04:51:10.378Z,101385.34
2022-11-02T04:55:11.760Z,101381.97
2022-11-02T04:59:13.288Z,101382.31
2022-11-02T05:03:14.668Z,101387.69
2022-11-02T05:07:16.127Z,101382.00
2022-11-02T05:11:18.045Z,101389.59
2022-11-02T05:15:19.410Z,101389.13
2022-11-02T05:19:20.771Z,101384.34
2022-11-02T05:23:22.946Z,101387.97
2022-11-02T05:27:24.515Z,101388.63
2022-11-02T05:31:25.883Z,101382.81
2022-11-02T05:35:27.235Z,101376.66
2022-11-02T05:39:28.613Z,101378.75
2022-11-02T05:43:30.460Z,101383.47
2022-11-02T05:47:33.925Z,101383.81
2022-11-02T05:51:35.310Z,101394.38
2022-11-02T05:55:36.722Z,101378.34
2022-11-02T05:59:38.134Z,101374.31
2022-11-02T06:03:39.558Z,101388.25
2022-11-02T06:07:41.037Z,101381.44
2022-11-02T06:11:42.434Z,101376.25
2022-11-02T06:15:43.937Z,101382.09
2022-11-02T06:19:45.352Z,101385.03
2022-11-02T06:23:48.104Z,101382.91
2022-11-02T06:27:57.115Z,101386.00
2022-11-02T06:31:58.985Z,101384.22
2022-11-02T06:36:00.659Z,101390.59
2022-11-02T06:40:02.087Z,101385.91
2022-11-02T06:44:03.738Z,101395.66
2022-11-02T06:48:05.811Z,101407.81
2022-11-02T06:52:08.398Z,101395.19
2022-11-02T06:56:13.363Z,101403.94
2022-11-02T07:00:22.695Z,101401.34
2022-11-02T07:04:25.850Z,101411.38
2022-11-02T07:08:30.434Z,101412.38
2022-11-02T07:12:33.161Z,101407.13
2022-11-02T07:16:35.100Z,101407.78
2022-11-02T07:20:37.819Z,101403.69
2022-11-02T07:24:39.558Z,101403.50
2022-11-02T07:28:41.502Z,101410.97
2022-11-02T07:32:44.393Z,101402.78
2022-11-02T07:36:46.320Z,101413.66
2022-11-02T07:40:50.803Z,101402.84
2022-11-02T07:44:52.699Z,101416.72
2022-11-02T07:48:54.088Z,101423.47
2022-11-02T07:52:58.052Z,101410.81
2022-11-02T07:57:02.290Z,101410.00
2022-11-02T08:01:03.875Z,101414.31
2022-11-02T08:05:06.365Z,101410.59
2022-11-02T08:09:07.863Z,101409.78
2022-11-02T08:13:14.286Z,101406.44
2022-11-02T08:17:15.809Z,101410.44
2022-11-02T08:21:18.626Z,101420.56
2022-11-02T08:25:20.279Z,101412.50
2022-11-02T08:29:22.158Z,101422.22
2022-11-02T08:33:23.929Z,101415.06
2022-11-02T08:37:33.860Z,101419.69
2022-11-02T08:41:35.301Z,101426.13
2022-11-02T08:46:08.881Z,101420.63
2022-11-02T08:50:00.615Z,101420.63
2022-11-02T08:54:02.206Z,101415.22
2022-11-02T08:58:04.077Z,101419.69
2022-11-02T09:02:06.426Z,101419.06
2022-11-02T09:06:08.282Z,101420.22
2022-11-02T09:10:09.822Z,101418.81
2022-11-02T09:14:11.427Z,101417.09
2022-11-02T09:18:13.133Z,101423.69
2022-11-02T09:22:14.957Z,101426.88
2022-11-02T09:26:17.207Z,101430.66
2022-11-02T09:30:18.862Z,101424.44
2022-11-02T09:34:20.588Z,101427.13
2022-11-02T09:38:22.087Z,101425.69
2022-11-02T09:42:38.048Z,101430.63
2022-11-02T09:46:46.670Z,101434.94
2022-11-02T09:51:02.042Z,101453.69
2022-11-02T09:55:19.780Z,101442.50
2022-11-02T09:59:24.236Z,101448.91
2022-11-02T10:03:42.117Z,101436.03
2022-11-02T10:08:09.432Z,101437.19
2022-11-02T10:12:41.057Z,101440.63
2022-11-02T10:17:14.285Z,101449.78
2022-11-02T10:21:32.560Z,101445.81
2022-11-02T10:25:35.650Z,101440.88
2022-11-02T10:29:59.303Z,101445.38
2022-11-02T10:34:23.833Z,101448.53
2022-11-02T10:38:44.934Z,101449.47
2022-11-02T10:42:49.888Z,101443.38
2022-11-02T10:47:17.772Z,101453.13
2022-11-02T10:51:21.566Z,101450.50
2022-11-02T10:55:47.648Z,101453.13
2022-11-02T11:00:26.189Z,101447.38
2022-11-02T11:04:30.009Z,101455.13
2022-11-02T11:08:35.834Z,101456.28
2022-11-02T11:12:45.902Z,101470.50
2022-11-02T11:16:51.631Z,101475.22
2022-11-02T11:20:55.219Z,101472.13
2022-11-02T11:25:28.509Z,101476.09
2022-11-02T11:29:32.810Z,101482.38
2022-11-02T11:33:52.794Z,101478.47
2022-11-02T11:37:59.407Z,101472.38
2022-11-02T11:42:03.349Z,101477.97
2022-11-02T11:46:10.823Z,101485.09
2022-11-02T11:50:19.595Z,101479.66
2022-11-02T11:54:32.717Z,101464.75
2022-11-02T11:58:34.968Z,101462.09
2022-11-02T12:02:43.800Z,101472.31
2022-11-02T12:06:55.155Z,101468.25
2022-11-02T12:11:18.791Z,101467.41
2022-11-02T12:15:45.379Z,101463.13
2022-11-02T12:20:11.330Z,101468.13
2022-11-02T12:24:42.109Z,101465.19
2022-11-02T12:28:52.509Z,101457.56
2022-11-02T12:33:21.900Z,101468.28
2022-11-02T12:37:51.712Z,101472.19
2022-11-02T12:42:06.869Z,101472.63
2022-11-02T12:46:16.041Z,101473.56
2022-11-02T12:50:54.433Z,101475.28
2022-11-02T12:54:58.428Z,101474.03
2022-11-02T12:59:00.512Z,101474.81
2022-11-02T13:03:34.843Z,101479.56
2022-11-02T13:07:46.185Z,101472.19
2022-11-02T13:12:14.853Z,101475.53
2022-11-02T13:16:20.042Z,101464.56
2022-11-02T13:20:26.341Z,101471.22
2022-11-02T13:24:33.410Z,101478.03
2022-11-02T13:28:44.598Z,101471.94
2022-11-02T13:32:59.972Z,101487.72
2022-11-02T13:37:12.417Z,101488.44
2022-11-02T13:41:32.191Z,101480.91
2022-11-02T13:46:02.543Z,101476.78
2022-11-02T13:50:04.793Z,101474.75
2022-11-02T13:54:14.063Z,101466.41
2022-11-02T13:58:26.177Z,101473.19
2022-11-02T14:02:33.905Z,101471.66
2022-11-02T14:06:50.842Z,101483.50
2022-11-02T14:11:11.175Z,101477.31
2022-11-02T14:15:12.534Z,101472.09
2022-11-02T14:19:32.450Z,101489.41
2022-11-02T14:23:34.950Z,101486.28
2022-11-02T14:27:36.805Z,101492.00
2022-11-02T14:31:44.062Z,101496.00
2022-11-02T14:35:57.931Z,101493.13
2022-11-02T14:40:33.431Z,101505.84
2022-11-02T14:44:40.819Z,101512.38
2022-11-02T14:48:56.021Z,101518.00
2022-11-02T14:53:05.857Z,101526.31
2022-11-02T14:57:25.543Z,101550.09
2022-11-02T15:01:26.965Z,101533.28
2022-11-02T15:05:37.687Z,101533.44
2022-11-02T15:09:57.549Z,101537.91
2022-11-02T15:13:59.030Z,101541.13
2022-11-02T15:18:21.642Z,101553.94
2022-11-02T15:22:32.254Z,101550.06
2022-11-02T15:26:46.241Z,101559.41
2022-11-02T15:30:51.453Z,101555.19
2022-11-02T15:34:55.559Z,101554.91
2022-11-02T15:38:57.280Z,101570.47
2022-11-02T15:43:32.534Z,101572.59
2022-11-02T15:47:48.007Z,101580.03
2022-11-02T15:51:57.826Z,101583.31
2022-11-02T15:56:02.316Z,101579.34
2022-11-02T16:00:18.122Z,101573.47
2022-11-02T16:04:21.354Z,101582.53
2022-11-02T16:08:44.925Z,101587.63
2022-11-02T16:12:46.505Z,101589.78
2022-11-02T16:16:50.351Z,101592.47
2022-11-02T16:20:54.937Z,101591.88
2022-11-02T16:24:56.418Z,101596.09
2022-11-02T16:28:59.215Z,101604.75
2022-11-02T16:33:00.812Z,101608.94
2022-11-02T16:37:07.532Z,101618.53
2022-11-02T16:41:14.721Z,101625.03
2022-11-02T16:45:43.794Z,101622.81
2022-11-02T16:49:51.449Z,101620.75
2022-11-02T16:53:52.846Z,101622.00
2022-11-02T16:57:54.344Z,101621.03
2022-11-02T17:02:03.703Z,101632.94
2022-11-02T17:06:07.342Z,101640.38
2022-11-02T17:10:21.199Z,101638.56
2022-11-02T17:14:24.139Z,101641.00
2022-11-02T17:18:28.429Z,101647.53
2022-11-02T17:22:29.860Z,101644.97
2022-11-02T17:26:34.826Z,101639.72
2022-11-02T17:30:45.436Z,101649.41
2022-11-02T17:34:51.960Z,101656.06
2022-11-02T17:38:55.229Z,101654.09
2022-11-02T17:42:59.334Z,101655.03
2022-11-02T17:47:02.970Z,101660.31
2022-11-02T17:51:04.724Z,101661.63
2022-11-02T17:55:06.983Z,101664.53
2022-11-02T17:59:08.632Z,101675.31
2022-11-02T18:03:22.369Z,101682.13
2022-11-02T18:07:25.711Z,101678.06
2022-11-02T18:11:27.323Z,101675.34
2022-11-02T18:15:30.752Z,101674.06
2022-11-02T18:19:33.428Z,101677.63
2022-11-02T18:23:36.061Z,101671.53
2022-11-02T18:27:40.818Z,101677.69
2022-11-02T18:31:42.256Z,101671.53
2022-11-02T18:35:44.240Z,101676.63
2022-11-02T18:39:45.909Z,101678.31
2022-11-02T18:43:47.374Z,101673.56
2022-11-02T18:47:48.765Z,101676.38
2022-11-02T18:51:50.305Z,101678.16
2022-11-02T18:55:54.621Z,101679.00
2022-11-02T18:59:56.078Z,101677.38
2022-11-02T19:03:59.182Z,101677.88
2022-11-02T19:08:19.479Z,101681.66
2022-11-02T19:12:27.083Z,101674.50
2022-11-02T19:16:28.469Z,101677.94
2022-11-02T19:20:35.132Z,101673.72
2022-11-02T19:24:36.684Z,101679.75
2022-11-02T19:28:38.278Z,101676.34
2022-11-02T19:32:39.874Z,101687.22
2022-11-02T19:36:41.532Z,101689.31
2022-11-02T19:40:42.910Z,101689.63
2022-11-02T19:44:44.565Z,101682.94
2022-11-02T19:48:46.604Z,101694.72
2022-11-02T19:52:49.413Z,101684.47
2022-11-02T19:56:51.155Z,101692.22
2022-11-02T20:00:52.745Z,101689.69
2022-11-02T20:04:54.136Z,101693.06
2022-11-02T20:08:57.408Z,101698.28
2022-11-02T20:12:58.915Z,101704.16
2022-11-02T20:17:25.254Z,101702.91
2022-11-02T20:21:32.094Z,101702.25
2022-11-02T20:25:37.546Z,101721.47
2022-11-02T20:29:40.657Z,101715.94
2022-11-02T20:33:42.805Z,101717.69
2022-11-02T20:37:44.415Z,101716.25
2022-11-02T20:41:45.998Z,101720.44
2022-11-02T20:45:47.537Z,101718.47
2022-11-02T20:49:51.001Z,101721.31
2022-11-02T20:53:52.908Z,101721.47
2022-11-02T20:57:54.372Z,101722.25
2022-11-02T21:01:55.932Z,101724.00
2022-11-02T21:05:57.501Z,101724.72
2022-11-02T21:09:58.898Z,101732.88
2022-11-02T21:14:00.340Z,101730.38
2022-11-02T21:18:01.781Z,101734.72
2022-11-02T21:22:03.200Z,101739.47
2022-11-02T21:26:07.022Z,101728.34
2022-11-02T21:30:09.109Z,101741.66
2022-11-02T21:34:10.527Z,101730.59
2022-11-02T21:38:12.050Z,101728.44
2022-11-02T21:42:13.491Z,101723.63
2022-11-02T21:46:14.915Z,101736.66
2022-11-02T21:50:16.335Z,101725.00
2022-11-02T21:54:17.721Z,101722.41
2022-11-02T21:58:19.081Z,101730.41
2022-11-02T22:02:20.609Z,101720.69
2022-11-02T22:06:24.931Z,101714.16
2022-11-02T22:10:28.554Z,101715.41
2022-11-02T22:14:29.894Z,101706.81
2022-11-02T22:18:31.307Z,101704.97
2022-11-02T22:22:32.688Z,101718.84
2022-11-02T22:26:35.809Z,101722.75
2022-11-02T22:30:37.850Z,101709.28
2022-11-02T22:34:39.664Z,101712.31
2022-11-02T22:38:56.726Z,101715.00
2022-11-02T22:42:58.195Z,101704.91
2022-11-02T22:46:59.621Z,101702.47
2022-11-02T22:51:01.114Z,101709.47
2022-11-02T22:55:02.505Z,101697.06
2022-11-02T22:59:05.085Z,101695.53
2022-11-02T23:03:06.808Z,101694.13
2022-11-02T23:07:08.640Z,101698.56
2022-11-02T23:11:22.655Z,101698.28
2022-11-02T23:15:24.050Z,101699.25
2022-11-02T23:19:33.003Z,101692.97
2022-11-02T23:23:52.994Z,101700.28
2022-11-02T23:28:14.741Z,101693.44
2022-11-02T23:32:28.528Z,101689.94
2022-11-02T23:36:29.958Z,101683.22
2022-11-02T23:40:32.427Z,101692.97
2022-11-02T23:44:33.847Z,101678.91
2022-11-02T23:48:35.276Z,101673.41
2022-11-02T23:52:55.397Z,101677.78
2022-11-02T23:56:57.085Z,101678.56
